createdAt,value
2018-05-31T00:01:12.303Z,18.50
2018-05-31T00:03:38.942Z,18.50
2018-05-31T00:06:06.441Z,18.40
2018-05-31T00:08:33.167Z,18.40
2018-05-31T00:10:59.771Z,18.40
2018-05-31T00:13:26.449Z,18.40
2018-05-31T00:15:53.087Z,18.30
2018-05-31T00:18:19.682Z,18.30
2018-05-31T00:20:46.356Z,18.30
2018-05-31T00:23:12.952Z,18.30
2018-05-31T00:25:39.599Z,18.30
2018-05-31T00:28:07.255Z,18.30
2018-05-31T00:30:33.925Z,18.20
2018-05-31T00:33:00.527Z,18.20
2018-05-31T00:35:27.996Z,18.20
2018-05-31T00:37:55.330Z,18.20
2018-05-31T00:40:21.976Z,18.10
2018-05-31T00:42:48.602Z,18.10
2018-05-31T00:45:15.187Z,18.10
2018-05-31T00:47:41.900Z,18.10
2018-05-31T00:50:09.632Z,18.10
2018-05-31T00:52:36.991Z,18.00
2018-05-31T00:55:03.583Z,18.00
2018-05-31T00:57:30.355Z,18.00
2018-05-31T00:59:57.033Z,17.90
2018-05-31T01:02:24.349Z,17.90
2018-05-31T01:04:50.982Z,17.90
2018-05-31T01:07:17.570Z,17.80
2018-05-31T01:09:44.224Z,17.80
2018-05-31T01:12:10.783Z,17.80
2018-05-31T01:14:37.402Z,17.70
2018-05-31T01:17:04.027Z,17.70
2018-05-31T01:19:30.878Z,17.70
2018-05-31T01:21:57.446Z,17.70
2018-05-31T01:24:23.994Z,17.60
2018-05-31T01:26:50.794Z,17.60
2018-05-31T01:29:17.392Z,17.50
2018-05-31T01:31:44.788Z,17.50
2018-05-31T01:34:11.377Z,17.40
2018-05-31T01:36:37.945Z,17.40
2018-05-31T01:39:04.767Z,17.40
2018-05-31T01:41:31.390Z,17.40
2018-05-31T01:43:57.961Z,17.30
2018-05-31T01:46:24.600Z,17.30
2018-05-31T01:48:51.913Z,17.30
2018-05-31T01:51:18.601Z,17.20
2018-05-31T01:53:45.146Z,17.20
2018-05-31T01:56:11.716Z,17.10
2018-05-31T01:58:38.412Z,17.10
2018-05-31T02:01:04.987Z,17.10
2018-05-31T02:03:31.655Z,17.10
2018-05-31T02:05:59.038Z,17.00
2018-05-31T02:08:25.746Z,17.00
2018-05-31T02:10:52.281Z,17.00
2018-05-31T02:13:18.864Z,16.90
2018-05-31T02:15:45.477Z,16.90
2018-05-31T02:18:12.078Z,16.90
2018-05-31T02:20:38.660Z,16.90
2018-05-31T02:23:05.965Z,16.90
2018-05-31T02:25:33.333Z,16.80
2018-05-31T02:27:59.914Z,16.80
2018-05-31T02:30:26.495Z,16.80
2018-05-31T02:32:53.120Z,16.80
2018-05-31T02:35:19.719Z,16.70
2018-05-31T02:37:46.699Z,16.70
2018-05-31T02:40:13.259Z,16.70
2018-05-31T02:42:40.563Z,16.60
2018-05-31T02:45:07.250Z,16.60
2018-05-31T02:47:33.827Z,16.60
2018-05-31T02:50:00.410Z,16.60
2018-05-31T02:52:27.509Z,16.50
2018-05-31T02:54:54.146Z,16.50
2018-05-31T02:57:21.430Z,16.40
2018-05-31T02:59:48.275Z,16.40
2018-05-31T03:02:14.810Z,16.40
2018-05-31T03:04:41.351Z,16.40
2018-05-31T03:07:07.949Z,16.40
2018-05-31T03:09:34.594Z,16.30
2018-05-31T03:12:01.188Z,16.30
2018-05-31T03:14:28.547Z,16.30
2018-05-31T03:16:55.095Z,16.30
2018-05-31T03:19:22.426Z,16.30
2018-05-31T03:21:48.975Z,16.20
2018-05-31T03:24:15.642Z,16.20
2018-05-31T03:26:42.215Z,16.20
2018-05-31T03:29:08.755Z,16.20
2018-05-31T03:31:35.378Z,16.20
2018-05-31T03:34:02.054Z,16.20
2018-05-31T03:36:28.685Z,16.20
2018-05-31T03:38:55.217Z,16.20
2018-05-31T03:41:21.860Z,16.30
2018-05-31T03:43:49.177Z,16.20
2018-05-31T03:46:16.197Z,16.20
2018-05-31T03:48:42.807Z,16.20
2018-05-31T03:51:09.352Z,16.20
2018-05-31T03:53:36.725Z,16.20
2018-05-31T03:56:03.346Z,16.20
2018-05-31T03:58:30.849Z,16.30
2018-05-31T04:00:57.459Z,16.30
2018-05-31T04:03:24.198Z,16.30
2018-05-31T04:05:51.176Z,16.30
2018-05-31T04:08:17.852Z,16.40
2018-05-31T04:10:45.572Z,16.40
2018-05-31T04:13:12.258Z,16.40
2018-05-31T04:15:40.059Z,16.50
2018-05-31T04:18:06.641Z,16.50
2018-05-31T04:20:33.177Z,16.50
2018-05-31T04:22:59.799Z,16.60
2018-05-31T04:25:26.378Z,16.60
2018-05-31T04:27:53.028Z,16.70
2018-05-31T04:30:19.649Z,16.90
2018-05-31T04:32:46.286Z,17.00
2018-05-31T04:35:13.591Z,17.20
2018-05-31T04:37:40.166Z,17.20
2018-05-31T04:40:06.831Z,17.30
2018-05-31T04:42:33.442Z,17.40
2018-05-31T04:45:00.136Z,17.40
2018-05-31T04:47:26.724Z,17.50
2018-05-31T04:49:53.314Z,17.60
2018-05-31T04:52:20.005Z,17.70
2018-05-31T04:54:47.374Z,17.90
2018-05-31T04:57:14.036Z,17.90
2018-05-31T04:59:40.580Z,18.00
2018-05-31T05:02:07.143Z,18.10
2018-05-31T05:04:34.143Z,18.10
2018-05-31T05:07:00.728Z,18.10
2018-05-31T05:09:27.342Z,18.20
2018-05-31T05:11:53.940Z,18.20
2018-05-31T05:14:20.508Z,18.30
2018-05-31T05:16:47.087Z,18.50
2018-05-31T05:19:13.675Z,18.80
2018-05-31T05:21:40.240Z,19.10
2018-05-31T05:24:06.796Z,19.50
2018-05-31T05:26:33.478Z,20.00
2018-05-31T05:28:59.985Z,20.40
2018-05-31T05:31:26.565Z,20.80
2018-05-31T05:33:53.219Z,21.20
2018-05-31T05:36:19.809Z,21.60
2018-05-31T05:38:46.571Z,21.90
2018-05-31T05:41:13.159Z,22.20
2018-05-31T05:43:39.720Z,22.40
2018-05-31T05:46:06.338Z,22.80
2018-05-31T05:48:33.154Z,23.10
2018-05-31T05:50:59.738Z,23.40
2018-05-31T05:53:26.337Z,23.60
2018-05-31T05:55:52.946Z,23.80
2018-05-31T05:58:19.507Z,23.90
2018-05-31T06:00:46.077Z,24.00
2018-05-31T06:03:12.657Z,24.20
2018-05-31T06:05:39.276Z,24.50
2018-05-31T06:08:05.973Z,24.90
2018-05-31T06:10:32.548Z,25.10
2018-05-31T06:12:59.232Z,25.30
2018-05-31T06:15:25.864Z,25.40
2018-05-31T06:17:53.185Z,25.60
2018-05-31T06:20:20.222Z,25.60
2018-05-31T06:22:46.782Z,25.80
2018-05-31T06:25:13.346Z,25.80
2018-05-31T06:27:41.456Z,25.70
2018-05-31T06:30:08.029Z,25.70
2018-05-31T06:32:35.622Z,25.80
2018-05-31T06:35:02.256Z,25.80
2018-05-31T06:37:28.924Z,25.80
2018-05-31T06:39:55.451Z,25.80
2018-05-31T06:42:21.996Z,25.90
2018-05-31T06:44:48.570Z,26.00
2018-05-31T06:47:15.535Z,26.30
2018-05-31T06:49:42.537Z,26.40
2018-05-31T06:52:09.082Z,26.60
2018-05-31T06:54:35.650Z,26.70
2018-05-31T06:57:03.715Z,26.60
2018-05-31T06:59:30.353Z,26.60
2018-05-31T07:01:56.957Z,26.50
2018-05-31T07:04:23.480Z,26.80
2018-05-31T07:06:50.078Z,27.00
2018-05-31T07:09:17.893Z,27.20
2018-05-31T07:11:44.500Z,27.20
2018-05-31T07:14:11.786Z,27.50
2018-05-31T07:16:38.383Z,27.50
2018-05-31T07:19:05.162Z,27.70
2018-05-31T07:21:31.844Z,28.10
2018-05-31T07:23:58.406Z,28.30
2018-05-31T07:26:26.193Z,28.80
2018-05-31T07:28:52.761Z,28.70
2018-05-31T07:31:19.363Z,28.90
2018-05-31T07:33:46.086Z,29.20
2018-05-31T07:36:13.457Z,29.60
2018-05-31T07:38:40.780Z,29.70
2018-05-31T07:41:07.380Z,29.80
2018-05-31T07:43:33.971Z,30.00
2018-05-31T07:46:00.581Z,30.20
2018-05-31T07:48:27.754Z,30.20
2018-05-31T07:50:54.595Z,30.50
2018-05-31T07:53:21.222Z,30.60
2018-05-31T07:55:48.529Z,30.70
2018-05-31T07:58:15.109Z,30.70
2018-05-31T08:00:42.434Z,30.90
2018-05-31T08:03:09.096Z,30.90
2018-05-31T08:05:35.643Z,31.00
2018-05-31T08:08:02.914Z,31.00
2018-05-31T08:10:29.512Z,31.00
2018-05-31T08:12:56.069Z,31.00
2018-05-31T08:15:23.549Z,31.20
2018-05-31T08:17:50.134Z,31.20
2018-05-31T08:20:16.686Z,31.40
2018-05-31T08:22:44.137Z,31.30
2018-05-31T08:25:10.703Z,31.20
2018-05-31T08:27:37.247Z,31.20
2018-05-31T08:30:03.863Z,31.10
2018-05-31T08:32:31.175Z,31.00
2018-05-31T08:34:57.797Z,31.00
2018-05-31T08:37:24.363Z,30.90
2018-05-31T08:39:51.763Z,30.90
2018-05-31T08:42:18.323Z,30.80
2018-05-31T08:44:44.868Z,30.70
2018-05-31T08:47:11.467Z,30.80
2018-05-31T08:49:38.182Z,31.10
2018-05-31T08:52:04.749Z,31.20
2018-05-31T08:54:31.359Z,31.20
2018-05-31T08:56:58.839Z,31.20
2018-05-31T08:59:25.415Z,31.30
2018-05-31T09:01:51.958Z,31.40
2018-05-31T09:04:18.543Z,31.40
2018-05-31T09:06:45.819Z,31.80
2018-05-31T09:09:12.424Z,31.80
2018-05-31T09:11:39.720Z,31.80
2018-05-31T09:14:06.347Z,31.80
2018-05-31T09:16:32.907Z,31.90
2018-05-31T09:18:59.440Z,32.10
2018-05-31T09:21:26.443Z,32.10
2018-05-31T09:23:52.998Z,32.20
2018-05-31T09:26:19.561Z,32.00
2018-05-31T09:28:46.134Z,32.00
2018-05-31T09:31:13.450Z,31.90
2018-05-31T09:33:40.041Z,31.90
2018-05-31T09:36:06.632Z,32.00
2018-05-31T09:38:33.174Z,32.20
2018-05-31T09:40:59.722Z,32.30
2018-05-31T09:43:27.417Z,32.40
2018-05-31T09:45:54.010Z,32.30
2018-05-31T09:48:20.539Z,32.50
2018-05-31T09:50:47.126Z,32.60
2018-05-31T09:53:14.631Z,32.60
2018-05-31T09:55:41.301Z,32.50
2018-05-31T09:58:08.666Z,32.20
2018-05-31T10:00:36.947Z,32.30
2018-05-31T10:03:03.519Z,32.30
2018-05-31T10:05:30.068Z,32.40
2018-05-31T10:07:56.638Z,32.60
2018-05-31T10:10:23.964Z,32.30
2018-05-31T10:12:50.535Z,32.20
2018-05-31T10:15:17.848Z,32.60
2018-05-31T10:17:44.511Z,32.60
2018-05-31T10:20:11.850Z,32.80
2018-05-31T10:22:38.449Z,32.80
2018-05-31T10:25:05.038Z,32.80
2018-05-31T10:27:32.812Z,32.70
2018-05-31T10:30:00.107Z,32.60
2018-05-31T10:32:26.703Z,32.60
2018-05-31T10:34:54.068Z,32.60
2018-05-31T10:37:20.610Z,32.50
2018-05-31T10:39:47.233Z,32.70
2018-05-31T10:42:13.784Z,32.80
2018-05-31T10:44:40.382Z,32.70
2018-05-31T10:47:06.987Z,32.60
2018-05-31T10:49:33.585Z,32.70
2018-05-31T10:52:00.995Z,32.70
2018-05-31T10:54:27.509Z,32.60
2018-05-31T10:56:54.083Z,32.80
2018-05-31T10:59:20.666Z,33.00
2018-05-31T11:01:47.480Z,33.20
2018-05-31T11:04:14.760Z,33.00
2018-05-31T11:06:41.317Z,33.00
2018-05-31T11:09:07.865Z,33.00
2018-05-31T11:11:34.459Z,33.10
2018-05-31T11:14:00.997Z,33.10
2018-05-31T11:16:27.554Z,32.90
2018-05-31T11:18:54.160Z,32.80
2018-05-31T11:21:20.721Z,32.80
2018-05-31T11:23:47.352Z,32.80
2018-05-31T11:26:13.898Z,32.80
2018-05-31T11:28:40.443Z,32.90
2018-05-31T11:31:07.144Z,33.10
2018-05-31T11:33:33.769Z,33.10
2018-05-31T11:36:01.100Z,33.00
2018-05-31T11:38:27.665Z,33.00
2018-05-31T11:40:54.230Z,33.10
2018-05-31T11:43:20.933Z,33.10
2018-05-31T11:45:47.479Z,33.00
2018-05-31T11:48:14.813Z,32.80
2018-05-31T11:50:42.102Z,32.80
2018-05-31T11:53:08.712Z,32.70
2018-05-31T11:55:36.065Z,32.70
2018-05-31T11:58:02.699Z,32.60
2018-05-31T12:00:29.287Z,32.60
2018-05-31T12:02:55.948Z,32.40
2018-05-31T12:05:22.582Z,32.50
2018-05-31T12:07:49.219Z,32.70
2018-05-31T12:10:15.805Z,32.60
2018-05-31T12:12:42.340Z,32.70
2018-05-31T12:15:08.959Z,32.70
2018-05-31T12:17:35.599Z,32.80
2018-05-31T12:20:02.169Z,32.80
2018-05-31T12:22:28.772Z,32.70
2018-05-31T12:24:56.043Z,32.80
2018-05-31T12:27:22.631Z,32.80
2018-05-31T12:29:49.209Z,32.70
2018-05-31T12:32:16.299Z,32.80
2018-05-31T12:34:42.906Z,33.00
2018-05-31T12:37:09.433Z,33.10
2018-05-31T12:39:36.021Z,33.20
2018-05-31T12:42:02.690Z,33.10
2018-05-31T12:44:29.273Z,33.00
2018-05-31T12:46:55.853Z,33.00
2018-05-31T12:49:23.170Z,32.90
2018-05-31T12:51:49.752Z,32.90
2018-05-31T12:54:17.180Z,32.70
2018-05-31T12:56:44.517Z,32.80
2018-05-31T12:59:11.108Z,32.80
2018-05-31T13:01:37.702Z,32.90
2018-05-31T13:04:04.279Z,33.00
2018-05-31T13:06:30.826Z,33.00
2018-05-31T13:08:57.394Z,33.00
2018-05-31T13:11:23.985Z,32.80
2018-05-31T13:13:51.298Z,32.60
2018-05-31T13:16:17.881Z,32.60
2018-05-31T13:18:44.479Z,32.60
2018-05-31T13:21:11.041Z,32.50
2018-05-31T13:23:38.336Z,32.00
2018-05-31T13:26:04.909Z,32.00
2018-05-31T13:28:31.521Z,32.00
2018-05-31T13:30:58.091Z,32.20
2018-05-31T13:33:25.385Z,32.20
2018-05-31T13:35:51.994Z,32.10
2018-05-31T13:38:19.330Z,32.10
2018-05-31T13:40:45.916Z,32.00
2018-05-31T13:43:12.494Z,32.30
2018-05-31T13:45:39.773Z,32.20
2018-05-31T13:48:07.090Z,32.10
2018-05-31T13:50:33.673Z,32.10
2018-05-31T13:53:00.306Z,32.20
2018-05-31T13:55:27.575Z,32.10
2018-05-31T13:57:54.148Z,32.00
2018-05-31T14:00:20.825Z,32.20
2018-05-31T14:02:48.125Z,32.00
2018-05-31T14:05:14.691Z,32.00
2018-05-31T14:07:41.242Z,32.00
2018-05-31T14:10:08.631Z,32.00
2018-05-31T14:12:35.204Z,32.00
2018-05-31T14:15:01.765Z,31.90
2018-05-31T14:17:29.128Z,32.20
2018-05-31T14:19:56.565Z,32.20
2018-05-31T14:22:23.135Z,32.10
2018-05-31T14:24:49.728Z,32.00
2018-05-31T14:27:16.719Z,32.00
2018-05-31T14:29:44.008Z,31.90
2018-05-31T14:32:10.580Z,31.90
2018-05-31T14:34:37.939Z,31.70
2018-05-31T14:37:05.306Z,31.70
2018-05-31T14:39:32.786Z,32.00
2018-05-31T14:41:59.362Z,31.90
2018-05-31T14:44:25.900Z,31.90
2018-05-31T14:46:52.702Z,32.00
2018-05-31T14:49:19.234Z,32.00
2018-05-31T14:51:45.779Z,32.10
2018-05-31T14:54:12.398Z,32.20
2018-05-31T14:56:38.954Z,32.10
2018-05-31T14:59:05.476Z,32.20
2018-05-31T15:01:32.058Z,32.10
2018-05-31T15:03:58.640Z,32.10
2018-05-31T15:06:25.222Z,32.20
2018-05-31T15:08:51.770Z,32.30
2018-05-31T15:11:18.344Z,32.30
2018-05-31T15:13:44.900Z,32.10
2018-05-31T15:16:11.468Z,32.10
2018-05-31T15:18:38.071Z,32.10
2018-05-31T15:21:04.751Z,31.90
2018-05-31T15:23:32.848Z,31.90
2018-05-31T15:26:00.291Z,31.80
2018-05-31T15:28:27.072Z,31.70
2018-05-31T15:30:53.629Z,31.70
2018-05-31T15:33:20.149Z,31.70
2018-05-31T15:35:46.881Z,31.80
2018-05-31T15:38:13.443Z,31.70
2018-05-31T15:40:40.018Z,31.60
2018-05-31T15:43:07.646Z,31.60
2018-05-31T15:45:34.531Z,31.50
2018-05-31T15:48:01.143Z,31.50
2018-05-31T15:50:27.702Z,31.50
2018-05-31T15:52:54.292Z,31.60
2018-05-31T15:55:20.934Z,31.60
2018-05-31T15:57:47.514Z,31.50
2018-05-31T16:00:14.869Z,31.20
2018-05-31T16:02:41.423Z,31.20
2018-05-31T16:05:07.973Z,31.20
2018-05-31T16:07:34.568Z,31.10
2018-05-31T16:10:02.141Z,30.90
2018-05-31T16:12:28.758Z,30.80
2018-05-31T16:14:56.062Z,30.80
2018-05-31T16:17:22.652Z,30.80
2018-05-31T16:19:49.271Z,30.80
2018-05-31T16:22:16.055Z,30.60
2018-05-31T16:24:43.355Z,30.50
2018-05-31T16:27:09.928Z,30.50
2018-05-31T16:29:37.266Z,30.30
2018-05-31T16:32:03.870Z,30.30
2018-05-31T16:34:30.394Z,30.30
2018-05-31T16:36:57.007Z,30.20
2018-05-31T16:39:23.594Z,30.20
2018-05-31T16:41:50.163Z,30.20
2018-05-31T16:44:17.445Z,30.30
2018-05-31T16:46:44.160Z,30.20
2018-05-31T16:49:11.455Z,30.30
2018-05-31T16:51:38.038Z,30.30
2018-05-31T16:54:04.766Z,30.20
2018-05-31T16:56:32.070Z,30.10
2018-05-31T16:58:58.655Z,30.00
2018-05-31T17:01:25.190Z,30.00
2018-05-31T17:03:51.918Z,29.90
2018-05-31T17:06:18.515Z,29.90
2018-05-31T17:08:45.492Z,29.70
2018-05-31T17:11:12.056Z,29.70
2018-05-31T17:13:39.589Z,29.40
2018-05-31T17:16:06.917Z,29.30
2018-05-31T17:18:33.759Z,29.30
2018-05-31T17:21:00.362Z,29.10
2018-05-31T17:23:27.884Z,29.00
2018-05-31T17:25:54.474Z,29.00
2018-05-31T17:28:21.095Z,28.90
2018-05-31T17:30:48.548Z,28.60
2018-05-31T17:33:15.193Z,28.60
2018-05-31T17:35:42.749Z,28.40
2018-05-31T17:38:09.489Z,28.40
2018-05-31T17:40:36.821Z,28.20
2018-05-31T17:43:03.389Z,28.20
2018-05-31T17:45:30.669Z,28.10
2018-05-31T17:47:57.239Z,28.10
2018-05-31T17:50:24.773Z,28.00
2018-05-31T17:52:51.337Z,28.00
2018-05-31T17:55:19.417Z,27.90
2018-05-31T17:57:46.694Z,27.80
2018-05-31T18:00:13.450Z,27.80
2018-05-31T18:02:39.986Z,27.80
2018-05-31T18:05:06.547Z,27.50
2018-05-31T18:07:33.136Z,27.00
2018-05-31T18:10:00.426Z,26.30
2018-05-31T18:12:27.098Z,26.20
2018-05-31T18:14:53.799Z,25.90
2018-05-31T18:17:20.355Z,25.60
2018-05-31T18:19:47.038Z,25.40
2018-05-31T18:22:13.854Z,25.20
2018-05-31T18:24:40.516Z,25.00
2018-05-31T18:27:07.810Z,24.70
2018-05-31T18:29:34.400Z,24.70
2018-05-31T18:32:01.040Z,24.60
2018-05-31T18:34:28.322Z,24.40
2018-05-31T18:36:55.138Z,24.30
2018-05-31T18:39:22.458Z,24.10
2018-05-31T18:41:49.023Z,24.10
2018-05-31T18:44:16.350Z,24.00
2018-05-31T18:46:42.906Z,24.00
2018-05-31T18:49:10.269Z,23.90
2018-05-31T18:51:37.694Z,23.80
2018-05-31T18:54:04.300Z,23.80
2018-05-31T18:56:30.865Z,23.70
2018-05-31T18:58:57.856Z,23.60
2018-05-31T19:01:25.151Z,23.40
2018-05-31T19:03:51.689Z,23.40
2018-05-31T19:06:19.064Z,23.30
2018-05-31T19:08:45.727Z,23.30
2018-05-31T19:11:13.001Z,23.10
2018-05-31T19:13:45.704Z,23.10
2018-05-31T19:16:12.229Z,23.10
2018-05-31T19:18:44.948Z,23.10
2018-05-31T19:21:11.611Z,23.10
2018-05-31T19:23:38.195Z,23.10
2018-05-31T19:26:04.886Z,23.00
2018-05-31T19:28:32.165Z,22.90
2018-05-31T19:31:04.918Z,22.90
2018-05-31T19:33:32.208Z,22.70
2018-05-31T19:36:05.063Z,22.70
2018-05-31T19:38:31.580Z,22.70
2018-05-31T19:40:58.554Z,22.60
2018-05-31T19:43:33.447Z,22.50
2018-05-31T19:46:00.539Z,22.50
2018-05-31T19:48:27.114Z,22.50
2018-05-31T19:50:54.393Z,22.40
2018-05-31T19:53:27.213Z,22.40
2018-05-31T19:55:53.746Z,22.40
2018-05-31T19:58:26.271Z,22.40
2018-05-31T20:00:58.940Z,22.30
2018-05-31T20:03:31.328Z,22.20
2018-05-31T20:05:57.893Z,22.20
2018-05-31T20:08:24.624Z,22.10
2018-05-31T20:10:51.129Z,22.00
2018-05-31T20:13:18.716Z,22.00
2018-05-31T20:15:45.245Z,22.00
2018-05-31T20:18:11.830Z,21.90
2018-05-31T20:20:39.454Z,21.80
2018-05-31T20:23:05.950Z,21.80
2018-05-31T20:25:32.546Z,21.80
2018-05-31T20:27:59.089Z,21.70
2018-05-31T20:30:25.662Z,21.70
2018-05-31T20:32:52.209Z,21.60
2018-05-31T20:35:19.583Z,21.50
2018-05-31T20:37:46.910Z,21.50
2018-05-31T20:40:13.543Z,21.40
2018-05-31T20:42:40.077Z,21.50
2018-05-31T20:45:06.585Z,21.40
2018-05-31T20:47:33.614Z,21.40
2018-05-31T20:50:00.143Z,21.30
2018-05-31T20:52:26.649Z,21.30
2018-05-31T20:54:53.158Z,21.20
2018-05-31T20:57:19.708Z,21.20
2018-05-31T20:59:46.246Z,21.10
2018-05-31T21:02:12.903Z,21.00
2018-05-31T21:04:39.404Z,21.00
2018-05-31T21:07:06.755Z,21.00
2018-05-31T21:09:33.291Z,21.00
2018-05-31T21:11:59.872Z,21.00
2018-05-31T21:14:26.436Z,20.90
2018-05-31T21:16:53.025Z,20.90
2018-05-31T21:19:20.334Z,20.80
2018-05-31T21:21:46.837Z,20.80
2018-05-31T21:24:13.295Z,20.80
2018-05-31T21:26:40.069Z,20.80
2018-05-31T21:29:06.600Z,20.80
2018-05-31T21:31:33.173Z,20.80
2018-05-31T21:33:59.715Z,20.80
2018-05-31T21:36:26.187Z,20.70
2018-05-31T21:38:53.658Z,20.70
2018-05-31T21:41:20.880Z,20.60
2018-05-31T21:43:47.370Z,20.60
2018-05-31T21:46:14.680Z,20.60
2018-05-31T21:48:41.266Z,20.60
2018-05-31T21:51:07.906Z,20.60
2018-05-31T21:53:35.198Z,20.60
2018-05-31T21:56:02.646Z,20.60
2018-05-31T21:58:29.202Z,20.60
2018-05-31T22:00:56.431Z,20.60
2018-05-31T22:03:22.941Z,20.60
2018-05-31T22:05:49.570Z,20.70
2018-05-31T22:08:16.076Z,20.60
2018-05-31T22:10:42.630Z,20.60
2018-05-31T22:13:09.970Z,20.60
2018-05-31T22:15:36.607Z,20.60
2018-05-31T22:18:04.113Z,20.60
2018-05-31T22:20:30.705Z,20.60
2018-05-31T22:22:57.206Z,20.60
2018-05-31T22:25:23.911Z,20.60
2018-05-31T22:27:51.212Z,20.60
2018-05-31T22:30:17.738Z,20.60
2018-05-31T22:32:44.657Z,20.60
2018-05-31T22:35:12.644Z,20.50
2018-05-31T22:37:39.312Z,20.50
2018-05-31T22:40:05.920Z,20.50
2018-05-31T22:42:32.576Z,20.50
2018-05-31T22:44:59.939Z,20.50
2018-05-31T22:47:26.529Z,20.40
2018-05-31T22:49:53.019Z,20.40
2018-05-31T22:52:19.570Z,20.40
2018-05-31T22:54:46.851Z,20.40
2018-05-31T22:57:13.413Z,20.40
2018-05-31T22:59:39.936Z,20.40
2018-05-31T23:02:06.509Z,20.40
2018-05-31T23:04:33.891Z,20.40
2018-05-31T23:07:00.517Z,20.40
2018-05-31T23:09:27.810Z,20.30
2018-05-31T23:11:54.379Z,20.30
2018-05-31T23:14:21.772Z,20.30
2018-05-31T23:16:48.337Z,20.30
2018-05-31T23:19:14.953Z,20.20
2018-05-31T23:21:41.511Z,20.20
2018-05-31T23:24:08.024Z,20.20
2018-05-31T23:26:35.428Z,20.10
2018-05-31T23:29:02.018Z,20.10
2018-05-31T23:31:28.585Z,20.10
2018-05-31T23:33:55.159Z,20.10
2018-05-31T23:36:21.702Z,20.10
2018-05-31T23:38:48.971Z,19.90
2018-05-31T23:41:16.349Z,19.90
2018-05-31T23:43:42.911Z,19.90
2018-05-31T23:46:09.483Z,19.80
2018-05-31T23:48:36.094Z,19.70
2018-05-31T23:51:02.651Z,19.70
2018-05-31T23:53:29.251Z,19.60
2018-05-31T23:55:55.809Z,19.60
2018-05-31T23:58:22.603Z,19.60
